createdAt,value
2023-03-17T00:01:54.597Z,101802.69
2023-03-17T00:04:24.496Z,101805.38
2023-03-17T00:06:53.093Z,101804.53
2023-03-17T00:09:22.310Z,101806.47
2023-03-17T00:11:50.294Z,101811.84
2023-03-17T00:14:19.769Z,101800.25
2023-03-17T00:16:52.659Z,101792.28
2023-03-17T00:19:26.437Z,101796.72
2023-03-17T00:21:55.068Z,101801.19
2023-03-17T00:24:22.414Z,101804.00
2023-03-17T00:26:49.682Z,101808.38
2023-03-17T00:29:16.936Z,101811.19
2023-03-17T00:31:45.745Z,101811.19
2023-03-17T00:34:17.374Z,101808.63
2023-03-17T00:36:48.207Z,101800.56
2023-03-17T00:41:43.729Z,101802.38
2023-03-17T00:44:11.835Z,101811.41
2023-03-17T00:46:41.625Z,101810.53
2023-03-17T00:49:22.092Z,101810.53
2023-03-17T00:51:50.884Z,101810.53
2023-03-17T00:54:20.873Z,101811.50
2023-03-17T00:56:49.968Z,101815.16
2023-03-17T00:59:30.611Z,101816.97
2023-03-17T01:01:58.295Z,101808.84
2023-03-17T01:04:25.983Z,101808.91
2023-03-17T01:06:54.022Z,101813.44
2023-03-17T01:09:26.695Z,101813.44
2023-03-17T01:11:55.613Z,101797.31
2023-03-17T01:14:23.445Z,101801.84
2023-03-17T01:16:53.061Z,101800.97
2023-03-17T01:19:20.632Z,101793.91
2023-03-17T01:21:48.145Z,101791.22
2023-03-17T01:24:15.431Z,101793.91
2023-03-17T01:26:42.767Z,101783.25
2023-03-17T01:29:10.079Z,101786.81
2023-03-17T01:31:37.448Z,101787.78
2023-03-17T01:34:06.288Z,101787.03
2023-03-17T01:36:34.388Z,101785.09
2023-03-17T01:39:02.084Z,101785.09
2023-03-17T01:41:33.681Z,101775.31
2023-03-17T01:44:01.238Z,101773.63
2023-03-17T01:46:31.790Z,101767.28
2023-03-17T01:48:59.036Z,101771.88
2023-03-17T01:51:40.283Z,101772.75
2023-03-17T01:54:18.834Z,101764.81
2023-03-17T01:56:50.080Z,101769.19
2023-03-17T01:59:27.110Z,101766.63
2023-03-17T02:02:03.449Z,101764.91
2023-03-17T02:04:32.668Z,101764.91
2023-03-17T02:07:02.558Z,101769.44
2023-03-17T02:09:32.727Z,101771.25
2023-03-17T02:12:01.595Z,101766.84
2023-03-17T02:14:31.892Z,101762.31
2023-03-17T02:16:59.428Z,101766.94
2023-03-17T02:19:27.002Z,101772.19
2023-03-17T02:21:56.909Z,101769.63
2023-03-17T02:24:30.777Z,101765.13
2023-03-17T02:27:03.784Z,101763.41
2023-03-17T02:29:34.128Z,101764.25
2023-03-17T02:32:02.512Z,101757.19
2023-03-17T02:34:31.792Z,101762.56
2023-03-17T02:36:59.376Z,101760.81
2023-03-17T02:39:27.472Z,101763.50
2023-03-17T02:41:55.087Z,101766.19
2023-03-17T02:44:22.554Z,101764.47
2023-03-17T02:46:49.916Z,101772.53
2023-03-17T02:49:17.839Z,101774.34
2023-03-17T02:51:45.903Z,101771.66
2023-03-17T02:54:13.248Z,101774.34
2023-03-17T02:56:40.923Z,101771.78
2023-03-17T02:59:09.276Z,101773.50
2023-03-17T03:01:36.910Z,101762.88
2023-03-17T03:04:04.283Z,101760.19
2023-03-17T03:06:31.820Z,101759.31
2023-03-17T03:08:59.357Z,101757.50
2023-03-17T03:11:26.775Z,101770.03
2023-03-17T03:13:54.300Z,101778.09
2023-03-17T03:16:21.727Z,101771.00
2023-03-17T03:18:48.982Z,101777.34
2023-03-17T03:21:16.279Z,101782.72
2023-03-17T03:23:48.255Z,101787.31
2023-03-17T03:26:15.707Z,101796.13
2023-03-17T03:28:42.920Z,101795.28
2023-03-17T03:31:11.249Z,101790.00
2023-03-17T03:33:38.566Z,101791.81
2023-03-17T03:36:06.510Z,101789.13
2023-03-17T03:38:33.888Z,101787.44
2023-03-17T03:41:01.575Z,101797.19
2023-03-17T03:43:29.344Z,101786.53
2023-03-17T03:45:56.770Z,101794.59
2023-03-17T03:48:24.516Z,101797.25
2023-03-17T03:50:56.754Z,101795.56
2023-03-17T03:53:24.296Z,101795.56
2023-03-17T03:55:52.205Z,101795.56
2023-03-17T03:58:19.516Z,101799.19
2023-03-17T04:00:47.187Z,101798.31
2023-03-17T04:03:14.803Z,101794.78
2023-03-17T04:05:42.143Z,101800.16
2023-03-17T04:08:09.496Z,101801.97
2023-03-17T04:10:36.959Z,101808.31
2023-03-17T04:13:04.210Z,101797.59
2023-03-17T04:15:31.613Z,101801.13
2023-03-17T04:17:58.865Z,101801.13
2023-03-17T04:20:26.117Z,101801.13
2023-03-17T04:22:53.340Z,101798.56
2023-03-17T04:25:20.639Z,101800.34
2023-03-17T04:27:47.949Z,101803.03
2023-03-17T04:30:16.903Z,101803.03
2023-03-17T04:32:45.102Z,101795.09
2023-03-17T04:35:14.892Z,101795.94
2023-03-17T04:37:42.204Z,101799.59
2023-03-17T04:40:11.258Z,101796.94
2023-03-17T04:42:39.181Z,101791.56
2023-03-17T04:45:09.388Z,101792.53
2023-03-17T04:47:37.907Z,101797.91
2023-03-17T04:50:05.755Z,101790.72
2023-03-17T04:52:33.080Z,101793.38
2023-03-17T04:55:00.367Z,101793.47
2023-03-17T04:57:27.619Z,101788.09
2023-03-17T04:59:54.958Z,101787.25
2023-03-17T05:02:22.297Z,101784.56
2023-03-17T05:04:49.728Z,101787.25
2023-03-17T05:07:17.013Z,101791.75
2023-03-17T05:09:44.344Z,101784.69
2023-03-17T05:12:13.654Z,101786.41
2023-03-17T05:14:41.676Z,101792.72
2023-03-17T05:17:08.958Z,101785.53
2023-03-17T05:19:36.525Z,101787.38
2023-03-17T05:22:03.812Z,101787.38
2023-03-17T05:24:31.087Z,101793.59
2023-03-17T05:26:58.336Z,101791.88
2023-03-17T05:29:25.782Z,101791.03
2023-03-17T05:31:53.088Z,101796.38
2023-03-17T05:34:20.415Z,101797.31
2023-03-17T05:36:47.931Z,101803.56
2023-03-17T05:39:15.246Z,101796.47
2023-03-17T05:41:42.624Z,101803.66
2023-03-17T05:44:10.400Z,101802.81
2023-03-17T05:46:37.759Z,101797.44
2023-03-17T05:49:05.105Z,101795.72
2023-03-17T05:51:32.405Z,101793.03
2023-03-17T05:53:59.750Z,101793.03
2023-03-17T05:56:33.375Z,101800.25
2023-03-17T05:59:01.655Z,101800.25
2023-03-17T06:01:29.610Z,101799.38
2023-03-17T06:03:57.204Z,101802.06
2023-03-17T06:06:24.759Z,101793.13
2023-03-17T06:08:52.406Z,101795.81
2023-03-17T06:11:21.608Z,101799.47
2023-03-17T06:13:49.690Z,101791.41
2023-03-17T06:16:17.046Z,101785.19
2023-03-17T06:18:45.784Z,101786.91
2023-03-17T06:21:13.785Z,101781.66
2023-03-17T06:23:41.085Z,101785.19
2023-03-17T06:26:08.512Z,101781.56
2023-03-17T06:28:35.884Z,101787.75
2023-03-17T06:31:05.335Z,101776.19
2023-03-17T06:33:35.347Z,101791.41
2023-03-17T06:36:03.359Z,101786.91
2023-03-17T06:38:30.672Z,101797.63
2023-03-17T06:40:58.052Z,101792.28
2023-03-17T06:43:25.604Z,101795.81
2023-03-17T06:45:52.830Z,101799.38
2023-03-17T06:48:20.080Z,101797.63
2023-03-17T06:50:47.789Z,101794.97
2023-03-17T06:53:15.517Z,101799.38
2023-03-17T06:55:42.962Z,101807.44
2023-03-17T06:58:10.751Z,101799.47
2023-03-17T07:00:41.110Z,101799.47
2023-03-17T07:03:10.016Z,101810.09
2023-03-17T07:05:39.376Z,101803.84
2023-03-17T07:08:06.792Z,101803.00
2023-03-17T07:10:35.450Z,101803.84
2023-03-17T07:13:02.991Z,101807.50
2023-03-17T07:15:34.862Z,101809.22
2023-03-17T07:18:02.430Z,101810.09
2023-03-17T07:20:30.295Z,101814.59
2023-03-17T07:22:58.069Z,101813.72
2023-03-17T07:25:25.352Z,101811.91
2023-03-17T07:27:52.859Z,101814.59
2023-03-17T07:30:20.628Z,101815.47
2023-03-17T07:32:48.800Z,101819.94
2023-03-17T07:35:16.295Z,101821.69
2023-03-17T07:37:44.277Z,101815.47
2023-03-17T07:40:12.061Z,101815.47
2023-03-17T07:42:39.441Z,101811.91
2023-03-17T07:45:07.994Z,101812.78
2023-03-17T07:47:35.271Z,101811.81
2023-03-17T07:50:03.031Z,101815.34
2023-03-17T07:52:30.766Z,101812.66
2023-03-17T07:54:58.507Z,101812.66
2023-03-17T07:57:25.975Z,101818.03
2023-03-17T07:59:53.574Z,101815.34
2023-03-17T08:02:21.291Z,101818.03
2023-03-17T08:04:48.727Z,101812.66
2023-03-17T08:07:16.032Z,101810.84
2023-03-17T08:09:43.497Z,101811.69
2023-03-17T08:12:11.715Z,101816.22
2023-03-17T08:14:39.101Z,101816.09
2023-03-17T08:17:06.550Z,101814.31
2023-03-17T08:19:33.929Z,101807.97
2023-03-17T08:22:01.560Z,101804.19
2023-03-17T08:24:29.454Z,101813.03
2023-03-17T08:26:58.586Z,101810.34
2023-03-17T08:29:28.382Z,101808.63
2023-03-17T08:31:56.062Z,101808.63
2023-03-17T08:34:24.250Z,101808.72
2023-03-17T08:36:51.653Z,101806.13
2023-03-17T08:39:19.658Z,101807.13
2023-03-17T08:41:47.044Z,101813.34
2023-03-17T08:44:14.934Z,101807.97
2023-03-17T08:46:42.406Z,101813.34
2023-03-17T08:49:11.033Z,101811.50
2023-03-17T08:51:39.533Z,101806.13
2023-03-17T08:54:07.772Z,101807.00
2023-03-17T08:56:35.347Z,101802.50
2023-03-17T08:59:05.547Z,101813.22
2023-03-17T09:01:34.828Z,101802.50
2023-03-17T09:04:02.871Z,101807.00
2023-03-17T09:06:30.398Z,101794.88
2023-03-17T09:08:57.704Z,101805.03
2023-03-17T09:11:28.013Z,101800.75
2023-03-17T09:13:55.749Z,101802.47
2023-03-17T09:16:23.850Z,101798.72
2023-03-17T09:18:51.384Z,101792.28
2023-03-17T09:21:18.740Z,101796.59
2023-03-17T09:23:46.810Z,101793.78
2023-03-17T09:26:14.784Z,101787.38
2023-03-17T09:28:42.845Z,101785.44
2023-03-17T09:31:12.441Z,101780.94
2023-03-17T09:33:40.999Z,101782.66
2023-03-17T09:36:10.104Z,101783.53
2023-03-17T09:38:37.985Z,101784.25
2023-03-17T09:41:20.509Z,101784.25
2023-03-17T09:44:21.864Z,101781.50
2023-03-17T09:47:05.716Z,101776.13
2023-03-17T09:49:42.617Z,101779.66
2023-03-17T09:52:15.113Z,101779.53
2023-03-17T09:54:42.924Z,101776.00
2023-03-17T09:57:13.318Z,101776.88
2023-03-17T09:59:44.089Z,101780.41
2023-03-17T10:02:32.682Z,101774.09
2023-03-17T10:05:17.894Z,101768.72
2023-03-17T10:08:04.526Z,101758.94
2023-03-17T10:10:53.757Z,101767.88
2023-03-17T10:13:42.787Z,101758.00
2023-03-17T10:16:23.192Z,101762.41
2023-03-17T10:18:55.294Z,101753.50
2023-03-17T10:21:28.705Z,101763.28
2023-03-17T10:23:58.045Z,101752.56
2023-03-17T10:26:33.970Z,101747.19
2023-03-17T10:29:10.835Z,101753.41
2023-03-17T10:31:39.338Z,101741.81
2023-03-17T10:34:15.955Z,101739.22
2023-03-17T10:37:03.482Z,101742.75
2023-03-17T10:39:32.897Z,101731.19
2023-03-17T10:42:09.550Z,101740.09
2023-03-17T10:45:16.682Z,101740.94
2023-03-17T10:47:48.197Z,101728.41
2023-03-17T10:50:18.311Z,101738.25
2023-03-17T10:52:47.491Z,101733.78
2023-03-17T10:55:19.115Z,101735.50
2023-03-17T10:57:59.647Z,101731.09
2023-03-17T11:00:29.763Z,101726.59
2023-03-17T11:02:58.944Z,101726.59
2023-03-17T11:05:29.131Z,101734.63
2023-03-17T11:08:10.952Z,101721.22
2023-03-17T11:10:40.585Z,101726.59
2023-03-17T11:13:08.397Z,101718.53
2023-03-17T11:15:43.054Z,101714.13
2023-03-17T11:18:42.048Z,101718.53
2023-03-17T11:21:23.314Z,101707.81
2023-03-17T11:24:09.455Z,101707.81
2023-03-17T11:26:44.615Z,101704.28
2023-03-17T11:29:26.913Z,101699.75
2023-03-17T11:32:03.360Z,101697.09
2023-03-17T11:34:56.798Z,101698.03
2023-03-17T11:37:45.517Z,101686.44
2023-03-17T11:40:18.023Z,101695.34
2023-03-17T11:43:33.655Z,101687.28
2023-03-17T11:46:19.335Z,101676.56
2023-03-17T11:49:20.488Z,101675.72
2023-03-17T11:52:14.147Z,101674.78
2023-03-17T11:54:50.692Z,101670.34
2023-03-17T11:57:27.275Z,101659.63
2023-03-17T12:00:02.816Z,101658.75
2023-03-17T12:02:53.702Z,101664.13
2023-03-17T12:05:26.223Z,101660.47
2023-03-17T12:07:59.034Z,101653.41
2023-03-17T12:10:50.628Z,101656.09
2023-03-17T12:13:34.046Z,101645.34
2023-03-17T12:16:14.407Z,101643.53
2023-03-17T12:19:06.427Z,101649.88
2023-03-17T12:21:54.275Z,101638.16
2023-03-17T12:24:59.585Z,101634.72
2023-03-17T12:27:31.731Z,101637.31
2023-03-17T12:30:03.429Z,101634.63
2023-03-17T12:32:59.325Z,101628.41
2023-03-17T12:35:34.304Z,101619.47
2023-03-17T12:38:12.573Z,101616.78
2023-03-17T12:41:17.485Z,101611.44
2023-03-17T12:44:12.792Z,101610.50
2023-03-17T12:47:04.594Z,101605.97
2023-03-17T12:50:06.959Z,101599.75
2023-03-17T12:53:04.465Z,101596.09
2023-03-17T12:55:34.180Z,101587.19
2023-03-17T12:58:21.197Z,101589.03
2023-03-17T13:00:55.413Z,101588.94
2023-03-17T13:03:24.510Z,101582.69
2023-03-17T13:05:55.188Z,101582.69
2023-03-17T13:08:25.802Z,101575.63
2023-03-17T13:11:15.530Z,101567.56
2023-03-17T13:13:48.077Z,101566.59
2023-03-17T13:16:47.525Z,101565.66
2023-03-17T13:19:20.145Z,101572.63
2023-03-17T13:22:00.525Z,101567.28
2023-03-17T13:24:53.288Z,101559.09
2023-03-17T13:27:32.487Z,101556.41
2023-03-17T13:30:22.121Z,101556.41
2023-03-17T13:33:23.209Z,101547.41
2023-03-17T13:36:11.812Z,101555.56
2023-03-17T13:39:17.906Z,101543.97
2023-03-17T13:42:17.675Z,101535.94
2023-03-17T13:44:45.894Z,101540.53
2023-03-17T13:47:38.377Z,101536.91
2023-03-17T13:50:30.730Z,101533.38
2023-03-17T13:53:02.811Z,101533.38
2023-03-17T13:56:00.242Z,101527.13
2023-03-17T13:58:33.275Z,101531.63
2023-03-17T14:01:05.413Z,101520.91
2023-03-17T14:03:49.241Z,101520.06
2023-03-17T14:06:21.620Z,101514.69
2023-03-17T14:08:53.439Z,101509.34
2023-03-17T14:11:32.498Z,101509.34
2023-03-17T14:14:26.018Z,101503.13
2023-03-17T14:17:20.972Z,101497.75
2023-03-17T14:20:18.534Z,101501.28
2023-03-17T14:22:49.288Z,101501.28
2023-03-17T14:25:26.102Z,101501.28
2023-03-17T14:27:57.098Z,101496.88
2023-03-17T14:30:30.503Z,101490.66
2023-03-17T14:33:05.696Z,101486.13
2023-03-17T14:35:37.539Z,101496.00
2023-03-17T14:38:18.876Z,101487.13
2023-03-17T14:40:46.933Z,101476.38
2023-03-17T14:43:15.121Z,101478.22
2023-03-17T14:45:58.902Z,101480.91
2023-03-17T14:48:32.314Z,101477.31
2023-03-17T14:51:06.933Z,101481.75
2023-03-17T14:53:43.302Z,101478.22
2023-03-17T14:56:10.760Z,101471.97
2023-03-17T14:58:43.512Z,101471.03
2023-03-17T15:01:17.180Z,101472.84
2023-03-17T15:03:59.078Z,101467.56
2023-03-17T15:06:30.677Z,101464.91
2023-03-17T15:09:00.384Z,101473.78
2023-03-17T15:11:41.623Z,101464.91
2023-03-17T15:14:29.498Z,101472.94
2023-03-17T15:16:57.377Z,101479.16
2023-03-17T15:19:29.203Z,101470.25
2023-03-17T15:21:59.927Z,101475.53
2023-03-17T15:24:39.346Z,101469.41
2023-03-17T15:27:18.484Z,101469.41
2023-03-17T15:29:47.467Z,101463.19
2023-03-17T15:32:20.295Z,101465.88
2023-03-17T15:34:52.779Z,101461.38
2023-03-17T15:37:24.629Z,101463.19
2023-03-17T15:39:53.735Z,101456.84
2023-03-17T15:42:24.574Z,101455.16
2023-03-17T15:44:52.406Z,101457.81
2023-03-17T15:47:22.090Z,101449.78
2023-03-17T15:49:50.981Z,101452.47
2023-03-17T15:52:27.398Z,101453.44
2023-03-17T15:54:57.172Z,101456.13
2023-03-17T15:57:25.544Z,101448.06
2023-03-17T15:59:52.980Z,101450.75
2023-03-17T16:02:32.772Z,101451.63
2023-03-17T16:05:05.116Z,101444.53
2023-03-17T16:07:32.481Z,101445.41
2023-03-17T16:09:59.856Z,101443.66
2023-03-17T16:12:27.235Z,101438.28
2023-03-17T16:14:54.500Z,101443.66
2023-03-17T16:17:29.985Z,101434.75
2023-03-17T16:19:58.488Z,101436.59
2023-03-17T16:22:43.908Z,101429.41
2023-03-17T16:25:24.938Z,101440.13
2023-03-17T16:27:53.671Z,101436.50
2023-03-17T16:30:27.185Z,101429.41
2023-03-17T16:32:59.488Z,101425.78
2023-03-17T16:35:26.800Z,101432.06
2023-03-17T16:37:54.418Z,101444.53
2023-03-17T16:40:25.431Z,101434.75
2023-03-17T16:42:53.623Z,101439.28
2023-03-17T16:45:34.831Z,101435.75
2023-03-17T16:48:03.821Z,101435.75
2023-03-17T16:50:33.821Z,101433.06
2023-03-17T16:53:01.213Z,101438.53
2023-03-17T16:55:29.750Z,101432.19
2023-03-17T16:58:04.354Z,101434.03
2023-03-17T17:00:32.655Z,101431.34
2023-03-17T17:03:00.311Z,101440.25
2023-03-17T17:05:30.356Z,101439.41
2023-03-17T17:07:59.851Z,101433.19
2023-03-17T17:10:29.676Z,101436.81
2023-03-17T17:12:56.953Z,101433.19
2023-03-17T17:15:24.921Z,101437.69
2023-03-17T17:17:56.702Z,101441.31
2023-03-17T17:20:29.080Z,101446.69
2023-03-17T17:23:01.574Z,101439.50
2023-03-17T17:25:29.787Z,101437.78
2023-03-17T17:27:58.155Z,101443.16
2023-03-17T17:30:30.910Z,101436.06
2023-03-17T17:33:00.276Z,101441.44
2023-03-17T17:35:32.005Z,101440.47
2023-03-17T17:38:01.865Z,101438.75
2023-03-17T17:40:30.943Z,101439.63
2023-03-17T17:42:58.473Z,101439.63
2023-03-17T17:45:26.084Z,101437.91
2023-03-17T17:47:53.379Z,101436.06
2023-03-17T17:50:25.364Z,101442.41
2023-03-17T17:52:53.003Z,101444.13
2023-03-17T17:55:20.860Z,101437.91
2023-03-17T17:57:48.241Z,101436.06
2023-03-17T18:00:17.247Z,101433.41
2023-03-17T18:02:45.192Z,101437.91
2023-03-17T18:05:13.644Z,101436.94
2023-03-17T18:07:41.196Z,101439.63
2023-03-17T18:10:14.613Z,101446.69
2023-03-17T18:12:41.917Z,101438.53
2023-03-17T18:15:09.920Z,101447.44
2023-03-17T18:17:37.107Z,101445.50
2023-03-17T18:20:05.346Z,101448.16
2023-03-17T18:22:33.759Z,101445.50
2023-03-17T18:25:02.020Z,101453.53
2023-03-17T18:27:29.314Z,101446.47
2023-03-17T18:29:58.621Z,101458.03
2023-03-17T18:32:27.894Z,101459.75
2023-03-17T18:34:56.979Z,101445.50
2023-03-17T18:37:24.480Z,101448.28
2023-03-17T18:40:11.546Z,101450.97
2023-03-17T18:42:39.060Z,101458.03
2023-03-17T18:45:08.488Z,101452.69
2023-03-17T18:47:37.732Z,101452.69
2023-03-17T18:50:08.077Z,101451.81
2023-03-17T18:52:37.523Z,101458.91
2023-03-17T18:55:05.542Z,101445.63
2023-03-17T18:57:33.372Z,101449.03
2023-03-17T19:00:01.032Z,101456.22
2023-03-17T19:02:28.241Z,101446.34
2023-03-17T19:04:55.644Z,101444.53
2023-03-17T19:07:23.135Z,101442.81
2023-03-17T19:09:51.024Z,101449.91
2023-03-17T19:12:18.707Z,101449.03
2023-03-17T19:14:46.062Z,101448.06
2023-03-17T19:17:13.352Z,101448.06
2023-03-17T19:19:41.510Z,101446.25
2023-03-17T19:22:09.572Z,101446.25
2023-03-17T19:24:37.722Z,101447.94
2023-03-17T19:27:05.661Z,101444.41
2023-03-17T19:29:33.456Z,101438.94
2023-03-17T19:32:00.796Z,101446.97
2023-03-17T19:34:28.229Z,101443.44
2023-03-17T19:36:55.704Z,101443.44
2023-03-17T19:39:23.598Z,101439.06
2023-03-17T19:41:55.027Z,101446.97
2023-03-17T19:44:22.686Z,101448.81
2023-03-17T19:46:50.461Z,101453.31
2023-03-17T19:49:18.075Z,101445.28
2023-03-17T19:51:45.304Z,101452.34
2023-03-17T19:54:13.248Z,101455.03
2023-03-17T19:56:40.781Z,101452.34
2023-03-17T19:59:09.079Z,101455.03
2023-03-17T20:01:37.952Z,101459.53
2023-03-17T20:04:06.968Z,101453.19
2023-03-17T20:06:35.587Z,101450.63
2023-03-17T20:09:04.332Z,101455.88
2023-03-17T20:11:33.964Z,101453.19
2023-03-17T20:14:02.555Z,101452.34
2023-03-17T20:16:36.043Z,101452.34
2023-03-17T20:19:04.186Z,101446.97
2023-03-17T20:21:31.525Z,101456.84
2023-03-17T20:23:58.987Z,101447.94
2023-03-17T20:26:26.755Z,101450.50
2023-03-17T20:28:54.106Z,101444.28
2023-03-17T20:31:22.762Z,101452.25
2023-03-17T20:33:51.092Z,101453.19
2023-03-17T20:36:18.452Z,101455.88
2023-03-17T20:38:45.829Z,101446.97
2023-03-17T20:41:16.120Z,101455.88
2023-03-17T20:43:44.588Z,101446.88
2023-03-17T20:46:23.897Z,101454.06
2023-03-17T20:48:58.411Z,101450.50
2023-03-17T20:51:26.553Z,101445.16
2023-03-17T20:53:55.184Z,101444.19
2023-03-17T20:56:24.132Z,101441.53
2023-03-17T20:58:53.189Z,101436.25
2023-03-17T21:01:21.654Z,101439.78
2023-03-17T21:03:50.509Z,101434.41
2023-03-17T21:06:18.669Z,101443.44
2023-03-17T21:08:46.315Z,101438.94
2023-03-17T21:11:17.045Z,101436.25
2023-03-17T21:13:48.000Z,101434.53
2023-03-17T21:16:22.553Z,101432.72
2023-03-17T21:18:50.138Z,101437.22
2023-03-17T21:21:18.343Z,101439.91
2023-03-17T21:23:47.285Z,101434.66
2023-03-17T21:26:15.416Z,101434.66
2023-03-17T21:28:43.126Z,101439.06
2023-03-17T21:31:12.348Z,101433.81
2023-03-17T21:33:40.027Z,101434.66
2023-03-17T21:36:07.794Z,101437.34
2023-03-17T21:38:35.754Z,101435.63
2023-03-17T21:41:28.684Z,101432.00
2023-03-17T21:43:56.314Z,101432.00
2023-03-17T21:46:24.337Z,101422.22
2023-03-17T21:48:52.207Z,101427.56
2023-03-17T21:51:20.849Z,101432.94
2023-03-17T21:53:48.528Z,101433.91
2023-03-17T21:56:16.924Z,101425.88
2023-03-17T21:58:44.240Z,101423.19
2023-03-17T22:01:12.271Z,101425.88
2023-03-17T22:03:40.073Z,101431.22
2023-03-17T22:06:08.839Z,101421.34
2023-03-17T22:08:36.132Z,101420.50
2023-03-17T22:11:13.221Z,101425.88
2023-03-17T22:13:41.455Z,101422.13
2023-03-17T22:16:10.339Z,101413.22
2023-03-17T22:18:38.266Z,101420.28
2023-03-17T22:21:06.785Z,101422.97
2023-03-17T22:23:39.669Z,101420.28
2023-03-17T22:26:15.759Z,101422.97
2023-03-17T22:28:44.788Z,101417.59
2023-03-17T22:31:23.832Z,101420.28
2023-03-17T22:33:55.286Z,101410.41
2023-03-17T22:36:23.825Z,101408.69
2023-03-17T22:38:51.644Z,101412.97
2023-03-17T22:41:22.062Z,101413.09
2023-03-17T22:43:51.454Z,101411.25
2023-03-17T22:46:19.489Z,101397.84
2023-03-17T22:48:47.706Z,101406.75
2023-03-17T22:51:18.338Z,101406.75
2023-03-17T22:53:46.552Z,101413.84
2023-03-17T22:56:15.801Z,101414.78
2023-03-17T22:58:44.313Z,101413.09
2023-03-17T23:01:13.415Z,101422.00
2023-03-17T23:03:41.936Z,101416.63
2023-03-17T23:06:10.317Z,101413.94
2023-03-17T23:08:38.963Z,101406.75
2023-03-17T23:11:10.607Z,101410.41
2023-03-17T23:13:40.680Z,101412.97
2023-03-17T23:16:09.512Z,101408.56
2023-03-17T23:18:37.267Z,101411.25
2023-03-17T23:21:06.721Z,101411.25
2023-03-17T23:23:34.989Z,101405.91
2023-03-17T23:26:03.129Z,101408.56
2023-03-17T23:28:30.456Z,101408.56
2023-03-17T23:30:58.196Z,101415.78
2023-03-17T23:33:26.073Z,101411.25
2023-03-17T23:35:53.492Z,101409.56
2023-03-17T23:38:21.347Z,101420.28
2023-03-17T23:40:49.536Z,101411.38
2023-03-17T23:43:16.872Z,101406.03
2023-03-17T23:45:44.302Z,101412.38
2023-03-17T23:48:11.995Z,101410.53
2023-03-17T23:50:41.143Z,101417.72
2023-03-17T23:53:09.633Z,101423.09
2023-03-17T23:55:37.351Z,101411.59
2023-03-17T23:58:04.985Z,101417.81
